sensor_id;sensor_type;location;lat;lon;timestamp;temperature;humidity
34640;DHT22;22600;48.186;11.526;2023-04-01T00:02:16;22.50;58.50
34640;DHT22;22600;48.186;11.526;2023-04-01T00:04:42;22.60;58.50
34640;DHT22;22600;48.186;11.526;2023-04-01T00:07:08;22.50;58.30
34640;DHT22;22600;48.186;11.526;2023-04-01T00:09:34;22.50;58.20
34640;DHT22;22600;48.186;11.526;2023-04-01T00:12:00;22.60;58.20
34640;DHT22;22600;48.186;11.526;2023-04-01T00:14:26;22.50;58.00
34640;DHT22;22600;48.186;11.526;2023-04-01T00:16:51;22.50;58.00
34640;DHT22;22600;48.186;11.526;2023-04-01T00:19:17;22.50;58.00
34640;DHT22;22600;48.186;11.526;2023-04-01T00:21:43;22.50;58.50
34640;DHT22;22600;48.186;11.526;2023-04-01T00:24:09;22.50;58.50
34640;DHT22;22600;48.186;11.526;2023-04-01T00:26:34;22.50;58.20
34640;DHT22;22600;48.186;11.526;2023-04-01T00:29:00;22.50;58.20
34640;DHT22;22600;48.186;11.526;2023-04-01T00:31:26;22.50;58.30
34640;DHT22;22600;48.186;11.526;2023-04-01T00:33:51;22.40;58.20
34640;DHT22;22600;48.186;11.526;2023-04-01T00:36:18;22.50;58.30
34640;DHT22;22600;48.186;11.526;2023-04-01T00:38:44;22.50;58.20
34640;DHT22;22600;48.186;11.526;2023-04-01T00:41:10;22.50;58.00
34640;DHT22;22600;48.186;11.526;2023-04-01T00:43:39;22.50;58.00
34640;DHT22;22600;48.186;11.526;2023-04-01T00:46:05;22.40;57.90
34640;DHT22;22600;48.186;11.526;2023-04-01T00:48:31;22.40;57.80
34640;DHT22;22600;48.186;11.526;2023-04-01T00:51:06;22.40;57.70
34640;DHT22;22600;48.186;11.526;2023-04-01T00:53:33;22.40;57.70
34640;DHT22;22600;48.186;11.526;2023-04-01T00:56:01;22.40;57.70
34640;DHT22;22600;48.186;11.526;2023-04-01T00:58:29;22.40;57.70
34640;DHT22;22600;48.186;11.526;2023-04-01T01:00:56;22.50;57.70
34640;DHT22;22600;48.186;11.526;2023-04-01T01:03:22;22.40;57.70
34640;DHT22;22600;48.186;11.526;2023-04-01T01:11:17;22.40;57.70
34640;DHT22;22600;48.186;11.526;2023-04-01T01:13:53;22.40;57.70
34640;DHT22;22600;48.186;11.526;2023-04-01T01:16:29;22.40;57.70
34640;DHT22;22600;48.186;11.526;2023-04-01T01:24:27;22.40;57.50
34640;DHT22;22600;48.186;11.526;2023-04-01T01:27:05;22.40;57.50
34640;DHT22;22600;48.186;11.526;2023-04-01T01:37:35;22.40;57.40
34640;DHT22;22600;48.186;11.526;2023-04-01T01:40:05;22.40;57.50
34640;DHT22;22600;48.186;11.526;2023-04-01T01:42:31;22.30;57.40
34640;DHT22;22600;48.186;11.526;2023-04-01T01:44:57;22.30;57.40
34640;DHT22;22600;48.186;11.526;2023-04-01T01:47:25;22.30;57.40
34640;DHT22;22600;48.186;11.526;2023-04-01T01:49:51;22.30;57.60
34640;DHT22;22600;48.186;11.526;2023-04-01T01:52:17;22.30;58.60
34640;DHT22;22600;48.186;11.526;2023-04-01T01:54:53;22.30;58.50
34640;DHT22;22600;48.186;11.526;2023-04-01T01:57:20;22.30;58.50
34640;DHT22;22600;48.186;11.526;2023-04-01T01:59:48;22.40;58.40
34640;DHT22;22600;48.186;11.526;2023-04-01T02:02:15;22.30;58.30
34640;DHT22;22600;48.186;11.526;2023-04-01T02:04:42;22.40;58.30
34640;DHT22;22600;48.186;11.526;2023-04-01T02:07:13;22.20;58.10
34640;DHT22;22600;48.186;11.526;2023-04-01T02:09:40;22.30;58.90
34640;DHT22;22600;48.186;11.526;2023-04-01T02:12:07;22.30;58.90
34640;DHT22;22600;48.186;11.526;2023-04-01T02:17:06;26.20;61.00
34640;DHT22;22600;48.186;11.526;2023-04-01T02:19:33;22.30;58.80
34640;DHT22;22600;48.186;11.526;2023-04-01T02:22:02;22.30;58.50
34640;DHT22;22600;48.186;11.526;2023-04-01T02:24:30;20.40;57.50
34640;DHT22;22600;48.186;11.526;2023-04-01T02:26:56;22.50;58.40
34640;DHT22;22600;48.186;11.526;2023-04-01T02:29:23;22.40;58.30
34640;DHT22;22600;48.186;11.526;2023-04-01T02:31:48;22.30;58.10
34640;DHT22;22600;48.186;11.526;2023-04-01T02:34:15;22.30;58.70
34640;DHT22;22600;48.186;11.526;2023-04-01T02:36:41;22.30;59.00
34640;DHT22;22600;48.186;11.526;2023-04-01T02:39:06;22.30;58.80
34640;DHT22;22600;48.186;11.526;2023-04-01T02:41:38;22.30;58.90
34640;DHT22;22600;48.186;11.526;2023-04-01T02:44:03;22.30;58.80
34640;DHT22;22600;48.186;11.526;2023-04-01T02:46:29;22.30;58.70
34640;DHT22;22600;48.186;11.526;2023-04-01T02:48:55;22.30;58.20
34640;DHT22;22600;48.186;11.526;2023-04-01T02:51:20;22.30;58.60
34640;DHT22;22600;48.186;11.526;2023-04-01T02:53:46;22.30;58.60
34640;DHT22;22600;48.186;11.526;2023-04-01T02:56:11;22.30;58.50
34640;DHT22;22600;48.186;11.526;2023-04-01T02:58:37;22.30;58.50
34640;DHT22;22600;48.186;11.526;2023-04-01T03:01:02;22.30;58.50
34640;DHT22;22600;48.186;11.526;2023-04-01T03:03:27;22.30;58.50
34640;DHT22;22600;48.186;11.526;2023-04-01T03:05:53;22.30;58.60
34640;DHT22;22600;48.186;11.526;2023-04-01T03:08:21;22.30;58.50
34640;DHT22;22600;48.186;11.526;2023-04-01T03:10:47;22.30;58.60
34640;DHT22;22600;48.186;11.526;2023-04-01T03:13:12;22.30;58.50
34640;DHT22;22600;48.186;11.526;2023-04-01T03:15:37;22.30;58.50
34640;DHT22;22600;48.186;11.526;2023-04-01T03:18:03;22.30;58.50
34640;DHT22;22600;48.186;11.526;2023-04-01T03:20:28;22.30;58.50
34640;DHT22;22600;48.186;11.526;2023-04-01T03:22:54;22.30;58.30
34640;DHT22;22600;48.186;11.526;2023-04-01T03:25:19;22.30;58.30
34640;DHT22;22600;48.186;11.526;2023-04-01T03:27:45;22.30;58.60
34640;DHT22;22600;48.186;11.526;2023-04-01T03:30:10;22.30;58.60
34640;DHT22;22600;48.186;11.526;2023-04-01T03:32:36;22.30;58.60
34640;DHT22;22600;48.186;11.526;2023-04-01T03:35:02;22.30;58.50
34640;DHT22;22600;48.186;11.526;2023-04-01T03:37:27;22.30;58.40
34640;DHT22;22600;48.186;11.526;2023-04-01T03:39:53;22.30;58.20
34640;DHT22;22600;48.186;11.526;2023-04-01T03:42:18;22.30;58.20
34640;DHT22;22600;48.186;11.526;2023-04-01T03:44:44;22.30;58.30
34640;DHT22;22600;48.186;11.526;2023-04-01T03:47:09;22.30;57.70
34640;DHT22;22600;48.186;11.526;2023-04-01T03:49:35;22.30;58.20
34640;DHT22;22600;48.186;11.526;2023-04-01T03:52:01;22.40;58.30
34640;DHT22;22600;48.186;11.526;2023-04-01T03:54:26;22.30;58.20
34640;DHT22;22600;48.186;11.526;2023-04-01T03:56:51;22.30;58.10
34640;DHT22;22600;48.186;11.526;2023-04-01T03:59:17;22.30;58.10
34640;DHT22;22600;48.186;11.526;2023-04-01T04:01:42;22.30;58.30
34640;DHT22;22600;48.186;11.526;2023-04-01T04:04:10;22.30;58.30
34640;DHT22;22600;48.186;11.526;2023-04-01T04:06:36;22.30;58.30
34640;DHT22;22600;48.186;11.526;2023-04-01T04:09:02;22.30;58.20
34640;DHT22;22600;48.186;11.526;2023-04-01T04:11:27;22.30;58.50
34640;DHT22;22600;48.186;11.526;2023-04-01T04:13:53;22.30;58.80
34640;DHT22;22600;48.186;11.526;2023-04-01T04:16:18;22.30;58.50
34640;DHT22;22600;48.186;11.526;2023-04-01T04:18:44;22.30;58.50
34640;DHT22;22600;48.186;11.526;2023-04-01T04:21:13;22.30;58.30
34640;DHT22;22600;48.186;11.526;2023-04-01T04:23:39;22.30;58.10
34640;DHT22;22600;48.186;11.526;2023-04-01T04:26:08;22.30;58.00
34640;DHT22;22600;48.186;11.526;2023-04-01T04:28:34;22.30;57.80
34640;DHT22;22600;48.186;11.526;2023-04-01T04:30:59;22.30;57.70
34640;DHT22;22600;48.186;11.526;2023-04-01T04:33:25;22.30;57.60
34640;DHT22;22600;48.186;11.526;2023-04-01T04:35:51;22.30;57.60
34640;DHT22;22600;48.186;11.526;2023-04-01T04:38:17;22.30;57.60
34640;DHT22;22600;48.186;11.526;2023-04-01T04:40:43;22.20;57.40
34640;DHT22;22600;48.186;11.526;2023-04-01T04:43:12;22.30;57.40
34640;DHT22;22600;48.186;11.526;2023-04-01T04:45:38;22.30;57.40
34640;DHT22;22600;48.186;11.526;2023-04-01T04:48:03;22.30;57.30
34640;DHT22;22600;48.186;11.526;2023-04-01T04:50:29;22.30;57.90
34640;DHT22;22600;48.186;11.526;2023-04-01T04:52:54;22.30;58.50
34640;DHT22;22600;48.186;11.526;2023-04-01T04:55:20;22.30;58.40
34640;DHT22;22600;48.186;11.526;2023-04-01T04:57:46;22.30;58.40
34640;DHT22;22600;48.186;11.526;2023-04-01T05:00:11;22.30;58.40
34640;DHT22;22600;48.186;11.526;2023-04-01T05:02:37;22.30;58.60
34640;DHT22;22600;48.186;11.526;2023-04-01T05:05:02;22.60;59.00
34640;DHT22;22600;48.186;11.526;2023-04-01T05:07:29;22.30;58.60
34640;DHT22;22600;48.186;11.526;2023-04-01T05:09:55;22.30;58.60
34640;DHT22;22600;48.186;11.526;2023-04-01T05:12:20;22.30;58.50
34640;DHT22;22600;48.186;11.526;2023-04-01T05:14:45;22.30;58.50
34640;DHT22;22600;48.186;11.526;2023-04-01T05:17:12;22.30;58.40
34640;DHT22;22600;48.186;11.526;2023-04-01T05:19:38;22.30;58.30
34640;DHT22;22600;48.186;11.526;2023-04-01T05:22:03;22.40;58.40
34640;DHT22;22600;48.186;11.526;2023-04-01T05:24:29;22.30;58.30
34640;DHT22;22600;48.186;11.526;2023-04-01T05:26:55;22.30;58.30
34640;DHT22;22600;48.186;11.526;2023-04-01T05:29:21;22.30;58.20
34640;DHT22;22600;48.186;11.526;2023-04-01T05:31:47;22.30;58.10
34640;DHT22;22600;48.186;11.526;2023-04-01T05:34:12;22.30;58.10
34640;DHT22;22600;48.186;11.526;2023-04-01T05:36:38;22.30;58.10
34640;DHT22;22600;48.186;11.526;2023-04-01T05:39:03;22.70;58.20
34640;DHT22;22600;48.186;11.526;2023-04-01T05:41:29;22.30;58.60
34640;DHT22;22600;48.186;11.526;2023-04-01T05:43:54;22.30;58.40
34640;DHT22;22600;48.186;11.526;2023-04-01T05:46:20;22.30;58.30
34640;DHT22;22600;48.186;11.526;2023-04-01T05:48:45;22.30;58.30
34640;DHT22;22600;48.186;11.526;2023-04-01T05:51:12;22.30;58.50
34640;DHT22;22600;48.186;11.526;2023-04-01T05:53:38;22.20;58.30
34640;DHT22;22600;48.186;11.526;2023-04-01T05:56:04;23.70;59.00
34640;DHT22;22600;48.186;11.526;2023-04-01T05:58:29;22.30;58.80
34640;DHT22;22600;48.186;11.526;2023-04-01T06:01:02;22.30;59.40
34640;DHT22;22600;48.186;11.526;2023-04-01T06:03:28;22.30;59.10
34640;DHT22;22600;48.186;11.526;2023-04-01T06:05:53;22.30;58.80
34640;DHT22;22600;48.186;11.526;2023-04-01T06:08:19;22.30;58.70
34640;DHT22;22600;48.186;11.526;2023-04-01T06:16:00;22.30;58.80
34640;DHT22;22600;48.186;11.526;2023-04-01T06:18:50;22.30;58.90
34640;DHT22;22600;48.186;11.526;2023-04-01T06:21:34;22.30;59.20
34640;DHT22;22600;48.186;11.526;2023-04-01T06:24:18;22.30;59.20
34640;DHT22;22600;48.186;11.526;2023-04-01T06:26:52;22.30;59.30
34640;DHT22;22600;48.186;11.526;2023-04-01T06:29:27;22.40;59.40
34640;DHT22;22600;48.186;11.526;2023-04-01T06:32:10;22.40;59.40
34640;DHT22;22600;48.186;11.526;2023-04-01T06:37:34;22.40;59.70
34640;DHT22;22600;48.186;11.526;2023-04-01T06:52:52;20.60;58.90
34640;DHT22;22600;48.186;11.526;2023-04-01T06:57:47;22.60;60.00
34640;DHT22;22600;48.186;11.526;2023-04-01T07:00:16;22.50;59.90
34640;DHT22;22600;48.186;11.526;2023-04-01T07:02:48;22.50;59.90
34640;DHT22;22600;48.186;11.526;2023-04-01T07:05:18;22.50;59.90
34640;DHT22;22600;48.186;11.526;2023-04-01T07:07:46;22.50;59.80
34640;DHT22;22600;48.186;11.526;2023-04-01T07:10:54;22.60;59.90
34640;DHT22;22600;48.186;11.526;2023-04-01T07:13:03;22.60;59.90
34640;DHT22;22600;48.186;11.526;2023-04-01T07:15:40;22.60;59.90
34640;DHT22;22600;48.186;11.526;2023-04-01T07:18:30;22.60;59.90
34640;DHT22;22600;48.186;11.526;2023-04-01T07:20:52;22.60;59.90
34640;DHT22;22600;48.186;11.526;2023-04-01T07:23:22;22.60;59.90
34640;DHT22;22600;48.186;11.526;2023-04-01T07:25:51;22.60;60.00
34640;DHT22;22600;48.186;11.526;2023-04-01T07:28:17;22.60;60.00
34640;DHT22;22600;48.186;11.526;2023-04-01T07:33:36;22.60;59.90
34640;DHT22;22600;48.186;11.526;2023-04-01T07:36:12;22.60;60.00
34640;DHT22;22600;48.186;11.526;2023-04-01T07:38:47;22.60;59.90
34640;DHT22;22600;48.186;11.526;2023-04-01T07:41:42;22.60;59.90
34640;DHT22;22600;48.186;11.526;2023-04-01T07:44:21;22.60;59.70
34640;DHT22;22600;48.186;11.526;2023-04-01T07:54:39;22.70;59.90
34640;DHT22;22600;48.186;11.526;2023-04-01T07:57:08;22.70;59.90
34640;DHT22;22600;48.186;11.526;2023-04-01T07:59:49;22.70;59.90
34640;DHT22;22600;48.186;11.526;2023-04-01T08:02:25;22.70;59.90
34640;DHT22;22600;48.186;11.526;2023-04-01T08:07:40;22.70;59.90
34640;DHT22;22600;48.186;11.526;2023-04-01T08:10:19;22.70;59.90
34640;DHT22;22600;48.186;11.526;2023-04-01T08:15:34;22.80;59.90
34640;DHT22;22600;48.186;11.526;2023-04-01T08:18:46;22.80;60.00
34640;DHT22;22600;48.186;11.526;2023-04-01T08:20:59;22.80;60.00
34640;DHT22;22600;48.186;11.526;2023-04-01T08:23:27;22.80;60.00
34640;DHT22;22600;48.186;11.526;2023-04-01T08:28:29;22.80;60.00
34640;DHT22;22600;48.186;11.526;2023-04-01T08:30:58;22.80;60.00
34640;DHT22;22600;48.186;11.526;2023-04-01T08:33:29;22.80;59.90
34640;DHT22;22600;48.186;11.526;2023-04-01T08:38:31;22.90;60.10
34640;DHT22;22600;48.186;11.526;2023-04-01T08:40:58;22.90;60.80
34640;DHT22;22600;48.186;11.526;2023-04-01T08:43:30;22.90;60.10
34640;DHT22;22600;48.186;11.526;2023-04-01T09:01:43;23.00;59.80
34640;DHT22;22600;48.186;11.526;2023-04-01T09:17:25;23.00;59.70
34640;DHT22;22600;48.186;11.526;2023-04-01T09:22:23;23.00;59.70
34640;DHT22;22600;48.186;11.526;2023-04-01T09:37:54;23.00;59.90
34640;DHT22;22600;48.186;11.526;2023-04-01T09:43:00;23.00;59.90
34640;DHT22;22600;48.186;11.526;2023-04-01T09:53:48;23.00;60.00
34640;DHT22;22600;48.186;11.526;2023-04-01T10:04:44;22.80;59.90
34640;DHT22;22600;48.186;11.526;2023-04-01T10:12:43;23.00;60.00
34640;DHT22;22600;48.186;11.526;2023-04-01T10:17:53;23.00;60.00
34640;DHT22;22600;48.186;11.526;2023-04-01T10:25:42;25.50;61.60
34640;DHT22;22600;48.186;11.526;2023-04-01T10:36:08;23.00;60.10
34640;DHT22;22600;48.186;11.526;2023-04-01T10:43:56;23.00;60.10
34640;DHT22;22600;48.186;11.526;2023-04-01T10:59:55;23.00;59.90
34640;DHT22;22600;48.186;11.526;2023-04-01T11:02:33;23.00;59.90
34640;DHT22;22600;48.186;11.526;2023-04-01T11:36:11;23.10;59.60
34640;DHT22;22600;48.186;11.526;2023-04-01T11:41:38;23.10;59.70
34640;DHT22;22600;48.186;11.526;2023-04-01T11:44:16;23.10;60.30
34640;DHT22;22600;48.186;11.526;2023-04-01T11:52:14;23.10;59.70
34640;DHT22;22600;48.186;11.526;2023-04-01T12:03:20;23.10;59.60
34640;DHT22;22600;48.186;11.526;2023-04-01T12:11:10;26.30;60.60
34640;DHT22;22600;48.186;11.526;2023-04-01T12:19:20;23.00;57.30
34640;DHT22;22600;48.186;11.526;2023-04-01T12:24:25;22.90;57.10
34640;DHT22;22600;48.186;11.526;2023-04-01T12:27:10;22.90;57.10
34640;DHT22;22600;48.186;11.526;2023-04-01T12:32:04;22.80;57.00
34640;DHT22;22600;48.186;11.526;2023-04-01T12:37:20;22.90;57.10
34640;DHT22;22600;48.186;11.526;2023-04-01T12:39:59;22.90;57.00
34640;DHT22;22600;48.186;11.526;2023-04-01T12:52:39;22.80;57.00
34640;DHT22;22600;48.186;11.526;2023-04-01T12:57:52;22.70;57.00
34640;DHT22;22600;48.186;11.526;2023-04-01T13:13:18;22.70;56.80
34640;DHT22;22600;48.186;11.526;2023-04-01T13:15:52;22.70;56.80
34640;DHT22;22600;48.186;11.526;2023-04-01T13:20:58;22.70;56.80
34640;DHT22;22600;48.186;11.526;2023-04-01T13:23:47;22.60;56.70
34640;DHT22;22600;48.186;11.526;2023-04-01T13:29:11;22.70;56.80
34640;DHT22;22600;48.186;11.526;2023-04-01T13:31:42;22.70;56.70
34640;DHT22;22600;48.186;11.526;2023-04-01T13:39:44;22.60;56.70
34640;DHT22;22600;48.186;11.526;2023-04-01T13:42:27;22.60;56.70
34640;DHT22;22600;48.186;11.526;2023-04-01T13:52:49;22.60;56.70
34640;DHT22;22600;48.186;11.526;2023-04-01T14:00:22;22.60;56.60
34640;DHT22;22600;48.186;11.526;2023-04-01T14:03:00;22.60;56.50
34640;DHT22;22600;48.186;11.526;2023-04-01T14:10:40;22.60;56.50
34640;DHT22;22600;48.186;11.526;2023-04-01T14:21:17;22.60;56.60
34640;DHT22;22600;48.186;11.526;2023-04-01T14:29:02;22.60;56.50
34640;DHT22;22600;48.186;11.526;2023-04-01T14:52:40;22.50;56.40
34640;DHT22;22600;48.186;11.526;2023-04-01T14:55:15;22.50;56.40
34640;DHT22;22600;48.186;11.526;2023-04-01T14:57:44;22.50;56.40
34640;DHT22;22600;48.186;11.526;2023-04-01T15:00:23;22.50;56.40
34640;DHT22;22600;48.186;11.526;2023-04-01T15:07:50;22.50;56.30
34640;DHT22;22600;48.186;11.526;2023-04-01T15:10:24;22.60;56.40
34640;DHT22;22600;48.186;11.526;2023-04-01T15:12:59;22.50;56.30
34640;DHT22;22600;48.186;11.526;2023-04-01T15:20:42;22.50;56.30
34640;DHT22;22600;48.186;11.526;2023-04-01T15:25:51;22.60;56.30
34640;DHT22;22600;48.186;11.526;2023-04-01T15:40:47;22.50;56.30
34640;DHT22;22600;48.186;11.526;2023-04-01T15:46:20;22.50;56.20
34640;DHT22;22600;48.186;11.526;2023-04-01T15:48:59;22.50;56.20
34640;DHT22;22600;48.186;11.526;2023-04-01T15:54:05;22.50;56.20
34640;DHT22;22600;48.186;11.526;2023-04-01T15:59:20;22.50;56.20
34640;DHT22;22600;48.186;11.526;2023-04-01T16:04:27;22.50;56.10
34640;DHT22;22600;48.186;11.526;2023-04-01T16:19:53;22.50;56.10
34640;DHT22;22600;48.186;11.526;2023-04-01T16:30:00;22.50;56.10
34640;DHT22;22600;48.186;11.526;2023-04-01T16:32:29;22.60;56.20
34640;DHT22;22600;48.186;11.526;2023-04-01T16:37:29;22.50;56.10
34640;DHT22;22600;48.186;11.526;2023-04-01T16:42:38;22.50;56.10
34640;DHT22;22600;48.186;11.526;2023-04-01T16:47:49;22.50;56.10
34640;DHT22;22600;48.186;11.526;2023-04-01T16:50:23;22.50;55.50
34640;DHT22;22600;48.186;11.526;2023-04-01T16:52:55;22.40;56.00
34640;DHT22;22600;48.186;11.526;2023-04-01T16:55:33;22.50;56.00
34640;DHT22;22600;48.186;11.526;2023-04-01T16:57:59;22.50;56.00
34640;DHT22;22600;48.186;11.526;2023-04-01T17:00:30;22.40;55.90
34640;DHT22;22600;48.186;11.526;2023-04-01T17:05:37;22.50;56.10
34640;DHT22;22600;48.186;11.526;2023-04-01T17:08:10;22.40;56.00
34640;DHT22;22600;48.186;11.526;2023-04-01T17:18:45;22.40;55.90
34640;DHT22;22600;48.186;11.526;2023-04-01T17:21:15;22.40;55.90
34640;DHT22;22600;48.186;11.526;2023-04-01T17:31:14;22.40;55.90
34640;DHT22;22600;48.186;11.526;2023-04-01T17:49:39;22.40;55.80
34640;DHT22;22600;48.186;11.526;2023-04-01T17:52:15;22.50;55.80
34640;DHT22;22600;48.186;11.526;2023-04-01T17:54:46;22.40;55.80
34640;DHT22;22600;48.186;11.526;2023-04-01T18:07:40;22.40;55.80
34640;DHT22;22600;48.186;11.526;2023-04-01T18:23:22;22.40;55.80
34640;DHT22;22600;48.186;11.526;2023-04-01T18:25:50;22.40;55.80
34640;DHT22;22600;48.186;11.526;2023-04-01T18:30:56;22.40;55.80
34640;DHT22;22600;48.186;11.526;2023-04-01T18:33:31;22.50;55.80
34640;DHT22;22600;48.186;11.526;2023-04-01T18:38:40;22.40;55.70
34640;DHT22;22600;48.186;11.526;2023-04-01T18:41:12;22.40;55.80
34640;DHT22;22600;48.186;11.526;2023-04-01T18:49:20;22.40;55.80
34640;DHT22;22600;48.186;11.526;2023-04-01T18:51:48;22.40;55.70
34640;DHT22;22600;48.186;11.526;2023-04-01T18:54:41;22.40;55.70
34640;DHT22;22600;48.186;11.526;2023-04-01T18:57:15;22.40;55.80
34640;DHT22;22600;48.186;11.526;2023-04-01T19:07:26;22.40;55.70
34640;DHT22;22600;48.186;11.526;2023-04-01T19:09:54;22.40;55.70
34640;DHT22;22600;48.186;11.526;2023-04-01T19:15:25;22.40;55.70
34640;DHT22;22600;48.186;11.526;2023-04-01T19:18:06;22.40;55.70
34640;DHT22;22600;48.186;11.526;2023-04-01T19:20:41;22.40;55.70
34640;DHT22;22600;48.186;11.526;2023-04-01T19:25:55;22.40;55.70
34640;DHT22;22600;48.186;11.526;2023-04-01T19:31:11;22.40;55.60
34640;DHT22;22600;48.186;11.526;2023-04-01T19:36:29;22.40;55.60
34640;DHT22;22600;48.186;11.526;2023-04-01T19:39:07;22.40;55.60
34640;DHT22;22600;48.186;11.526;2023-04-01T19:46:36;22.40;55.70
34640;DHT22;22600;48.186;11.526;2023-04-01T19:51:50;22.40;55.60
34640;DHT22;22600;48.186;11.526;2023-04-01T19:59:23;22.40;55.60
34640;DHT22;22600;48.186;11.526;2023-04-01T20:06:51;22.40;55.60
34640;DHT22;22600;48.186;11.526;2023-04-01T20:09:28;22.40;55.60
34640;DHT22;22600;48.186;11.526;2023-04-01T20:17:22;22.40;55.60
34640;DHT22;22600;48.186;11.526;2023-04-01T20:27:50;22.40;55.60
34640;DHT22;22600;48.186;11.526;2023-04-01T20:30:20;22.40;55.60
34640;DHT22;22600;48.186;11.526;2023-04-01T20:52:32;22.30;55.50
34640;DHT22;22600;48.186;11.526;2023-04-01T21:12:42;22.40;55.50
34640;DHT22;22600;48.186;11.526;2023-04-01T21:20:36;22.40;55.50
34640;DHT22;22600;48.186;11.526;2023-04-01T21:30:58;22.40;55.50
34640;DHT22;22600;48.186;11.526;2023-04-01T21:38:27;22.30;55.40
34640;DHT22;22600;48.186;11.526;2023-04-01T22:05:07;22.30;55.90
34640;DHT22;22600;48.186;11.526;2023-04-01T22:07:41;22.30;56.00
34640;DHT22;22600;48.186;11.526;2023-04-01T22:12:46;22.30;56.10
34640;DHT22;22600;48.186;11.526;2023-04-01T22:20:23;22.40;56.60
34640;DHT22;22600;48.186;11.526;2023-04-01T22:28:13;22.40;56.10
34640;DHT22;22600;48.186;11.526;2023-04-01T22:30:51;22.40;56.60
34640;DHT22;22600;48.186;11.526;2023-04-01T22:36:03;22.40;56.60
34640;DHT22;22600;48.186;11.526;2023-04-01T22:41:25;22.40;56.40
34640;DHT22;22600;48.186;11.526;2023-04-01T22:43:57;22.30;56.40
34640;DHT22;22600;48.186;11.526;2023-04-01T22:46:26;22.40;56.40
34640;DHT22;22600;48.186;11.526;2023-04-01T22:48:57;22.40;56.40
34640;DHT22;22600;48.186;11.526;2023-04-01T22:54:05;22.40;56.40
34640;DHT22;22600;48.186;11.526;2023-04-01T23:01:25;22.30;56.40
34640;DHT22;22600;48.186;11.526;2023-04-01T23:03:53;22.40;56.50
34640;DHT22;22600;48.186;11.526;2023-04-01T23:06:20;22.50;56.50
34640;DHT22;22600;48.186;11.526;2023-04-01T23:11:41;22.40;56.60
34640;DHT22;22600;48.186;11.526;2023-04-01T23:16:58;22.40;56.60
34640;DHT22;22600;48.186;11.526;2023-04-01T23:19:28;22.40;56.60
34640;DHT22;22600;48.186;11.526;2023-04-01T23:22:44;22.40;56.60
34640;DHT22;22600;48.186;11.526;2023-04-01T23:24:44;22.40;56.80
34640;DHT22;22600;48.186;11.526;2023-04-01T23:27:20;22.40;56.90
34640;DHT22;22600;48.186;11.526;2023-04-01T23:29:46;22.40;56.90
34640;DHT22;22600;48.186;11.526;2023-04-01T23:32:33;22.30;57.00
34640;DHT22;22600;48.186;11.526;2023-04-01T23:34:58;22.30;57.10
34640;DHT22;22600;48.186;11.526;2023-04-01T23:37:24;22.40;57.20
34640;DHT22;22600;48.186;11.526;2023-04-01T23:39:54;22.40;57.30
34640;DHT22;22600;48.186;11.526;2023-04-01T23:42:22;22.40;57.30
34640;DHT22;22600;48.186;11.526;2023-04-01T23:44:49;22.40;57.30
34640;DHT22;22600;48.186;11.526;2023-04-01T23:47:20;22.30;57.20
34640;DHT22;22600;48.186;11.526;2023-04-01T23:49:59;22.40;57.10
34640;DHT22;22600;48.186;11.526;2023-04-01T23:52:27;22.40;57.10
34640;DHT22;22600;48.186;11.526;2023-04-01T23:55:00;22.40;57.00
34640;DHT22;22600;48.186;11.526;2023-04-01T23:57:29;22.40;57.00
